»·PEaware :: N921AL KPSP-KLAS

N921AL :: KPSP-KLAS

FLIGHT INFORMATION

Flight Status: Arrived
Operator: Privately registered:
United States
More flights under this callsign
Pilot: Alex L. (10007)
Aircraft: Unknown
(FA7X)
More flights by this aircraft type
Origin: KPSP Palm Springs Intl
United States
Destination: KLAS McCarran Intl
United States
More flights between these airports :: More routes between these airports
Route: +CATH1 PSP V370 TNP KEPEC3
File this flight plan on PilotEdge
Remarks:
Altitude:
(Current/Filed)
30,000ft
Speed:
(Current/Filed)
380kts
Departed: 11-Nov-16 12:29 PM
Arrived: 11-Nov-16 01:10 PM
Distance/Time
Traveled:
150nm/0:41
Distance/Time
To Go:
Arrived

Flight Plot

Page will automatically refresh every two minutes.


Map Options




Map Legend


Flown Route
Filed Route
Departure Airport
Arrival Airport
Navaid (VOR, NDB)
Fix

Horizontal Profiles

Position Reports

Time Latitude Longitude Heading Altitude Ground
Speed
11-Nov-16 12:11 33.828671 -116.513116 92 434ft 0kts
11-Nov-16 12:12 33.828671 -116.513116 92 434ft 0kts
11-Nov-16 12:13 33.828671 -116.513116 92 434ft 0kts
11-Nov-16 12:14 33.828671 -116.513116 92 434ft 0kts
11-Nov-16 12:15 33.828671 -116.513116 92 434ft 0kts
11-Nov-16 12:16 33.828657 -116.510405 90 429ft 7kts
11-Nov-16 12:17 33.828654 -116.509600 90 428ft 0kts
11-Nov-16 12:18 33.826593 -116.506970 143 421ft 21kts
11-Nov-16 12:19 33.820306 -116.501382 143 402ft 33kts
11-Nov-16 12:20 33.818754 -116.500006 143 399ft 0kts
11-Nov-16 12:21 33.818469 -116.499525 118 397ft 0kts
11-Nov-16 12:22 33.818446 -116.499091 87 396ft 8kts
11-Nov-16 12:23 33.824354 -116.502931 323 412ft 124kts
11-Nov-16 12:24 33.867622 -116.525642 16 3796ft 211kts
11-Nov-16 12:25 33.878634 -116.462807 109 8997ft 254kts
11-Nov-16 12:26 33.860586 -116.370237 77 12965ft 305kts
11-Nov-16 12:27 33.886238 -116.272719 70 14716ft 343kts
11-Nov-16 12:28 33.940247 -116.154259 60 18877ft 431kts
11-Nov-16 12:29 33.998890 -116.024295 61 22805ft 457kts
11-Nov-16 12:30 34.059696 -115.887898 61 25031ft 470kts
11-Nov-16 12:31 34.128284 -115.755176 46 28470ft 494kts
11-Nov-16 12:33 34.274731 -115.587330 43 30999ft 515kts
11-Nov-16 12:34 34.396038 -115.499551 20 31001ft 515kts
11-Nov-16 12:35 34.530199 -115.440620 19 30583ft 512kts
11-Nov-16 12:36 34.663467 -115.382387 19 29878ft 506kts
11-Nov-16 12:37 34.797581 -115.341656 352 28305ft 495kts
11-Nov-16 12:38 34.927397 -115.385758 342 25918ft 478kts
11-Nov-16 12:39 35.051485 -115.434049 342 23508ft 461kts
11-Nov-16 12:40 35.170996 -115.480761 342 21103ft 445kts
11-Nov-16 12:41 35.286810 -115.526167 342 18688ft 429kts
11-Nov-16 12:42 35.398152 -115.569949 342 16285ft 414kts
11-Nov-16 12:43 35.505834 -115.612412 342 13878ft 400kts
11-Nov-16 12:44 35.610540 -115.653821 342 13001ft 395kts
11-Nov-16 12:45 35.711992 -115.627068 39 13007ft 395kts
11-Nov-16 12:46 35.763201 -115.582117 27 13018ft 395kts
11-Nov-16 12:47 35.863668 -115.568010 0 12981ft 328kts
11-Nov-16 12:48 35.952978 -115.557868 32 12719ft 324kts
11-Nov-16 12:49 36.001014 -115.466397 66 11784ft 319kts
11-Nov-16 12:50 36.028199 -115.368007 89 10741ft 274kts
11-Nov-16 12:51 36.026759 -115.276609 91 9282ft 263kts
11-Nov-16 12:52 36.025189 -115.187364 91 7939ft 258kts
11-Nov-16 12:53 36.023675 -115.099937 91 6823ft 245kts
11-Nov-16 12:54 36.022317 -115.020050 90 5692ft 228kts
11-Nov-16 12:55 36.021046 -114.944037 90 4993ft 215kts
11-Nov-16 12:56 36.019829 -114.869781 91 4990ft 215kts
11-Nov-16 12:57 36.047096 -114.821607 334 5026ft 216kts
11-Nov-16 12:58 36.073427 -114.880900 291 4948ft 174kts
11-Nov-16 12:59 36.076333 -114.942654 270 4930ft 190kts
11-Nov-16 13:00 36.076410 -114.996582 270 4124ft 187kts
11-Nov-16 13:01 36.076424 -115.059081 270 3158ft 178kts
11-Nov-16 13:02 36.076406 -115.111798 269 2318ft 129kts
11-Nov-16 13:03 36.076464 -115.154426 271 2128ft 76kts
11-Nov-16 13:04 36.076365 -115.165472 268 2168ft 31kts
11-Nov-16 13:05 36.079053 -115.169717 30 2172ft 27kts
11-Nov-16 13:06 36.084077 -115.169121 98 2160ft 0kts
11-Nov-16 13:07 36.084077 -115.169121 98 2160ft 0kts

Navigation Log

Ident Type
Flight plan parsing failed, navigation log unavailable